createdAt,value
2019-02-18T00:00:42.996Z,65.78
2019-02-18T00:01:55.001Z,112.25
2019-02-18T00:02:59.716Z,67.25
2019-02-18T00:04:04.671Z,84.83
2019-02-18T00:05:09.800Z,64.70
2019-02-18T00:06:14.654Z,67.42
2019-02-18T00:07:19.692Z,65.08
2019-02-18T00:08:24.669Z,77.17
2019-02-18T00:09:29.581Z,64.35
2019-02-18T00:10:34.817Z,62.27
2019-02-18T00:11:39.920Z,64.77
2019-02-18T00:12:44.844Z,77.12
2019-02-18T00:13:49.881Z,64.65
2019-02-18T00:14:54.851Z,62.95
2019-02-18T00:16:00.111Z,58.13
2019-02-18T00:17:05.160Z,63.10
2019-02-18T00:18:10.113Z,74.25
2019-02-18T00:19:15.084Z,80.87
2019-02-18T00:20:20.073Z,55.15
2019-02-18T00:21:25.048Z,63.52
2019-02-18T00:22:30.132Z,47.65
2019-02-18T00:23:35.077Z,85.40
2019-02-18T00:24:39.820Z,145.50
2019-02-18T00:25:44.970Z,106.80
2019-02-18T00:26:50.117Z,97.15
2019-02-18T00:27:54.936Z,99.55
2019-02-18T00:28:59.993Z,86.17
2019-02-18T00:30:05.293Z,68.87
2019-02-18T00:31:10.269Z,67.05
2019-02-18T00:32:15.311Z,49.20
2019-02-18T00:33:20.335Z,39.88
2019-02-18T00:34:25.188Z,40.40
2019-02-18T00:35:30.328Z,65.37
2019-02-18T00:36:35.343Z,53.25
2019-02-18T00:37:40.148Z,44.42
2019-02-18T00:38:45.121Z,39.30
2019-02-18T00:39:49.921Z,37.58
2019-02-18T00:40:54.717Z,35.85
2019-02-18T00:41:59.696Z,41.92
2019-02-18T00:43:04.630Z,40.45
2019-02-18T00:44:09.462Z,40.30
2019-02-18T00:45:14.679Z,58.65
2019-02-18T00:46:19.725Z,38.98
2019-02-18T00:47:24.504Z,46.92
2019-02-18T00:48:29.373Z,57.70
2019-02-18T00:49:34.329Z,65.90
2019-02-18T00:50:39.146Z,58.83
2019-02-18T00:51:44.182Z,54.08
2019-02-18T00:52:49.205Z,75.17
2019-02-18T00:53:53.991Z,48.52
2019-02-18T00:54:59.001Z,47.85
2019-02-18T00:56:04.103Z,47.25
2019-02-18T00:57:08.914Z,39.40
2019-02-18T00:58:13.868Z,72.55
2019-02-18T00:59:18.696Z,49.75
2019-02-18T01:00:23.484Z,71.30
2019-02-18T01:01:28.480Z,59.18
2019-02-18T01:02:33.557Z,56.45
2019-02-18T01:03:38.485Z,64.12
2019-02-18T01:04:43.302Z,62.95
2019-02-18T01:05:48.044Z,46.20
2019-02-18T01:06:52.820Z,135.40
2019-02-18T01:07:57.866Z,61.45
2019-02-18T01:09:02.798Z,45.83
2019-02-18T01:10:08.702Z,59.33
2019-02-18T01:11:13.768Z,88.47
2019-02-18T01:12:18.541Z,90.72
2019-02-18T01:13:23.391Z,67.20
2019-02-18T01:14:28.253Z,88.07
2019-02-18T01:15:33.020Z,62.60
2019-02-18T01:16:37.942Z,60.65
2019-02-18T01:17:42.812Z,69.00
2019-02-18T01:18:47.616Z,97.95
2019-02-18T01:19:52.352Z,75.95
2019-02-18T01:20:57.305Z,86.02
2019-02-18T01:22:02.224Z,60.88
2019-02-18T01:23:07.132Z,93.65
2019-02-18T01:24:12.019Z,67.97
2019-02-18T01:25:16.820Z,57.50
2019-02-18T01:26:21.905Z,53.98
2019-02-18T01:27:26.777Z,61.35
2019-02-18T01:28:31.548Z,62.10
2019-02-18T01:29:36.491Z,59.40
2019-02-18T01:30:41.352Z,64.90
2019-02-18T01:31:46.144Z,62.65
2019-02-18T01:32:51.020Z,102.38
2019-02-18T01:33:55.960Z,80.87
2019-02-18T01:35:00.714Z,129.68
2019-02-18T01:36:05.544Z,117.42
2019-02-18T01:37:10.453Z,98.03
2019-02-18T01:38:15.199Z,73.83
2019-02-18T01:39:20.084Z,71.47
2019-02-18T01:40:25.028Z,72.17
2019-02-18T01:41:29.916Z,67.47
2019-02-18T01:42:35.048Z,93.35
2019-02-18T01:43:39.980Z,55.12
2019-02-18T01:44:44.768Z,103.90
2019-02-18T01:45:49.711Z,66.67
2019-02-18T01:46:54.644Z,107.80
2019-02-18T01:47:59.390Z,84.95
2019-02-18T01:49:04.383Z,112.68
2019-02-18T01:50:12.065Z,81.78
2019-02-18T01:51:16.817Z,94.50
2019-02-18T01:52:21.576Z,109.00
2019-02-18T01:53:26.445Z,120.50
2019-02-18T01:54:31.203Z,103.22
2019-02-18T01:55:36.212Z,99.03
2019-02-18T01:56:41.120Z,106.83
2019-02-18T01:57:45.850Z,178.65
2019-02-18T01:58:50.712Z,151.22
2019-02-18T01:59:55.585Z,158.55
2019-02-18T02:01:00.316Z,96.35
2019-02-18T02:02:05.350Z,111.17
2019-02-18T02:03:10.244Z,113.32
2019-02-18T02:04:15.036Z,110.20
2019-02-18T02:05:19.999Z,160.95
2019-02-18T02:06:24.753Z,93.47
2019-02-18T02:07:29.529Z,109.63
2019-02-18T02:08:34.421Z,96.50
2019-02-18T02:09:58.117Z,193.02
2019-02-18T02:11:03.001Z,167.35
2019-02-18T02:12:07.916Z,96.92
2019-02-18T02:13:32.062Z,127.65
2019-02-18T02:14:36.945Z,163.30
2019-02-18T02:15:41.698Z,115.40
2019-02-18T02:16:46.501Z,169.45
2019-02-18T02:17:51.505Z,81.02
2019-02-18T02:18:56.243Z,112.77
2019-02-18T02:20:01.121Z,115.20
2019-02-18T02:21:06.276Z,147.25
2019-02-18T02:22:11.057Z,134.50
2019-02-18T02:23:15.900Z,145.87
2019-02-18T02:24:20.761Z,103.80
2019-02-18T02:25:25.499Z,122.10
2019-02-18T02:26:30.371Z,128.90
2019-02-18T02:27:35.260Z,135.63
2019-02-18T02:28:40.001Z,129.35
2019-02-18T02:29:44.980Z,122.40
2019-02-18T02:30:49.951Z,99.77
2019-02-18T02:31:54.689Z,94.87
2019-02-18T02:32:59.625Z,118.37
2019-02-18T02:34:04.500Z,81.28
2019-02-18T02:35:09.643Z,115.55
2019-02-18T02:36:14.560Z,165.30
2019-02-18T02:37:19.489Z,151.72
2019-02-18T02:38:24.237Z,158.50
2019-02-18T02:39:29.115Z,179.20
2019-02-18T02:40:33.941Z,231.23
2019-02-18T02:41:38.716Z,149.07
2019-02-18T02:42:43.590Z,150.65
2019-02-18T02:43:48.486Z,166.95
2019-02-18T02:44:53.233Z,130.12
2019-02-18T02:45:58.116Z,123.05
2019-02-18T02:47:03.085Z,133.00
2019-02-18T02:48:07.881Z,157.97
2019-02-18T02:49:12.893Z,122.28
2019-02-18T02:50:17.801Z,111.95
2019-02-18T02:51:22.552Z,97.02
2019-02-18T02:52:27.481Z,94.17
2019-02-18T02:53:32.338Z,96.82
2019-02-18T02:54:37.079Z,101.78
2019-02-18T02:55:41.956Z,165.20
2019-02-18T02:56:47.768Z,91.72
2019-02-18T02:57:52.549Z,110.42
2019-02-18T02:58:57.456Z,91.95
2019-02-18T03:00:02.335Z,98.52
2019-02-18T03:01:07.095Z,100.20
2019-02-18T03:02:12.118Z,155.55
2019-02-18T03:03:16.996Z,139.60
2019-02-18T03:04:21.720Z,94.22
2019-02-18T03:05:26.624Z,132.20
2019-02-18T03:06:31.519Z,140.65
2019-02-18T03:07:36.284Z,88.60
2019-02-18T03:08:41.280Z,109.50
2019-02-18T03:09:46.072Z,155.05
2019-02-18T03:10:50.812Z,127.00
2019-02-18T03:11:55.564Z,87.67
2019-02-18T03:13:00.462Z,83.67
2019-02-18T03:14:05.297Z,65.50
2019-02-18T03:15:10.367Z,136.47
2019-02-18T03:16:15.256Z,113.75
2019-02-18T03:17:20.249Z,82.17
2019-02-18T03:18:25.108Z,75.57
2019-02-18T03:19:30.038Z,69.30
2019-02-18T03:20:34.772Z,91.15
2019-02-18T03:21:39.706Z,66.17
2019-02-18T03:22:44.597Z,77.72
2019-02-18T03:23:49.349Z,79.62
2019-02-18T03:25:26.696Z,76.67
2019-02-18T03:26:31.540Z,107.30
2019-02-18T03:27:36.564Z,163.75
2019-02-18T03:29:20.968Z,91.80
2019-02-18T03:30:41.892Z,109.87
2019-02-18T03:31:46.697Z,89.35
2019-02-18T03:32:55.452Z,133.05
2019-02-18T03:34:33.696Z,77.32
2019-02-18T03:35:38.564Z,90.05
2019-02-18T03:36:43.562Z,69.07
2019-02-18T03:37:48.450Z,132.47
2019-02-18T03:38:53.314Z,74.17
2019-02-18T03:39:58.221Z,62.30
2019-02-18T03:41:03.709Z,49.03
2019-02-18T03:42:08.934Z,64.25
2019-02-18T03:43:13.683Z,127.92
2019-02-18T03:44:18.458Z,95.32
2019-02-18T03:45:23.350Z,85.40
2019-02-18T03:46:28.253Z,119.67
2019-02-18T03:47:33.005Z,102.30
2019-02-18T03:48:37.869Z,80.77
2019-02-18T03:49:42.725Z,140.32
2019-02-18T03:50:47.476Z,112.68
2019-02-18T03:51:52.350Z,99.83
2019-02-18T03:52:57.192Z,79.60
2019-02-18T03:54:02.282Z,81.78
2019-02-18T03:55:07.949Z,132.47
2019-02-18T03:56:12.739Z,120.87
2019-02-18T03:57:17.756Z,91.82
2019-02-18T03:58:22.759Z,78.20
2019-02-18T03:59:27.571Z,118.57
2019-02-18T04:00:32.581Z,74.82
2019-02-18T04:01:37.498Z,125.07
2019-02-18T04:02:42.382Z,90.70
2019-02-18T04:03:47.532Z,145.57
2019-02-18T04:04:52.445Z,94.85
2019-02-18T04:05:57.236Z,95.95
2019-02-18T04:07:01.985Z,116.03
2019-02-18T04:08:06.957Z,134.63
2019-02-18T04:09:11.769Z,135.52
2019-02-18T04:10:16.736Z,125.72
2019-02-18T04:11:21.756Z,93.82
2019-02-18T04:12:26.492Z,114.03
2019-02-18T04:13:31.395Z,106.55
2019-02-18T04:14:36.281Z,129.93
2019-02-18T04:15:41.288Z,135.90
2019-02-18T04:16:46.056Z,120.67
2019-02-18T04:17:51.090Z,133.37
2019-02-18T04:18:55.953Z,108.65
2019-02-18T04:20:00.852Z,89.45
2019-02-18T04:21:05.780Z,104.80
2019-02-18T04:22:10.535Z,76.57
2019-02-18T04:23:15.289Z,70.32
2019-02-18T04:24:20.168Z,71.05
2019-02-18T04:25:24.932Z,138.05
2019-02-18T04:26:29.948Z,151.25
2019-02-18T04:27:34.830Z,119.85
2019-02-18T04:28:39.620Z,124.00
2019-02-18T04:29:44.524Z,113.28
2019-02-18T04:30:49.413Z,99.83
2019-02-18T04:31:54.186Z,89.97
2019-02-18T04:32:59.047Z,86.97
2019-02-18T04:34:03.886Z,131.90
2019-02-18T04:35:08.772Z,111.00
2019-02-18T04:36:13.647Z,98.25
2019-02-18T04:37:18.606Z,102.60
2019-02-18T04:38:23.361Z,99.95
2019-02-18T04:39:28.188Z,117.15
2019-02-18T04:40:33.120Z,107.27
2019-02-18T04:41:37.910Z,99.15
2019-02-18T04:42:42.786Z,116.62
2019-02-18T04:43:47.664Z,68.95
2019-02-18T04:44:52.453Z,79.10
2019-02-18T04:45:57.344Z,125.07
2019-02-18T04:47:02.204Z,161.65
2019-02-18T04:48:06.984Z,131.93
2019-02-18T04:49:11.864Z,108.45
2019-02-18T04:50:16.789Z,107.17
2019-02-18T04:51:21.534Z,99.65
2019-02-18T04:52:26.496Z,117.85
2019-02-18T04:53:31.383Z,114.30
2019-02-18T04:54:36.145Z,123.78
2019-02-18T04:55:41.026Z,75.67
2019-02-18T04:56:45.916Z,105.20
2019-02-18T04:57:50.760Z,97.53
2019-02-18T04:58:55.588Z,86.08
2019-02-18T05:00:00.608Z,133.47
2019-02-18T05:01:05.397Z,101.82
2019-02-18T05:02:10.365Z,76.33
2019-02-18T05:03:15.336Z,128.93
2019-02-18T05:04:20.137Z,132.72
2019-02-18T05:05:25.107Z,154.05
2019-02-18T05:06:30.108Z,96.90
2019-02-18T05:07:34.853Z,157.82
2019-02-18T05:08:39.694Z,157.15
2019-02-18T05:09:45.012Z,166.00
2019-02-18T05:10:49.839Z,93.97
2019-02-18T05:11:54.692Z,104.78
2019-02-18T05:12:59.610Z,182.35
2019-02-18T05:14:04.355Z,148.50
2019-02-18T05:15:09.656Z,214.00
2019-02-18T05:16:14.523Z,161.52
2019-02-18T05:17:19.294Z,128.60
2019-02-18T05:18:24.221Z,120.30
2019-02-18T05:19:29.109Z,100.92
2019-02-18T05:20:33.901Z,109.25
2019-02-18T05:21:38.800Z,127.35
2019-02-18T05:22:43.588Z,171.55
2019-02-18T05:23:48.402Z,130.22
2019-02-18T05:24:53.425Z,113.68
2019-02-18T05:25:58.361Z,170.47
2019-02-18T05:27:03.117Z,124.72
2019-02-18T05:28:08.088Z,105.85
2019-02-18T05:29:13.102Z,102.95
2019-02-18T05:30:18.024Z,136.05
2019-02-18T05:31:22.990Z,172.57
2019-02-18T05:32:28.016Z,160.95
2019-02-18T05:33:32.841Z,119.42
2019-02-18T05:34:37.804Z,104.75
2019-02-18T05:35:42.828Z,91.25
2019-02-18T05:36:47.600Z,130.30
2019-02-18T05:37:52.549Z,102.67
2019-02-18T05:38:57.986Z,118.62
2019-02-18T05:40:02.919Z,114.60
2019-02-18T05:41:07.861Z,112.85
2019-02-18T05:42:12.882Z,165.28
2019-02-18T05:43:17.628Z,122.40
2019-02-18T05:44:22.736Z,108.63
2019-02-18T05:45:27.763Z,101.27
2019-02-18T05:46:32.667Z,154.00
2019-02-18T05:47:37.858Z,102.87
2019-02-18T05:48:42.796Z,116.97
2019-02-18T05:49:47.558Z,99.13
2019-02-18T05:50:52.600Z,137.88
2019-02-18T05:51:57.614Z,158.50
2019-02-18T05:53:02.360Z,104.53
2019-02-18T05:54:07.202Z,95.72
2019-02-18T05:55:12.120Z,105.10
2019-02-18T05:56:17.101Z,149.85
2019-02-18T05:57:22.852Z,97.67
2019-02-18T05:58:28.078Z,106.97
2019-02-18T05:59:35.833Z,112.40
2019-02-18T06:00:41.004Z,89.52
2019-02-18T06:01:45.736Z,119.87
2019-02-18T06:02:50.592Z,131.12
2019-02-18T06:03:55.516Z,90.60
2019-02-18T06:05:00.533Z,103.10
2019-02-18T06:06:05.815Z,81.30
2019-02-18T06:07:10.724Z,84.52
2019-02-18T06:08:15.522Z,60.05
2019-02-18T06:09:28.923Z,70.05
2019-02-18T06:10:27.005Z,66.87
2019-02-18T06:11:31.728Z,71.05
2019-02-18T06:12:36.513Z,66.70
2019-02-18T06:13:41.289Z,96.22
2019-02-18T06:14:46.069Z,112.22
2019-02-18T06:15:51.071Z,175.65
2019-02-18T06:16:56.159Z,92.75
2019-02-18T06:18:01.095Z,100.25
2019-02-18T06:19:06.311Z,117.05
2019-02-18T06:20:11.277Z,72.80
2019-02-18T06:21:16.283Z,75.28
2019-02-18T06:22:21.120Z,133.87
2019-02-18T06:23:25.899Z,141.57
2019-02-18T06:24:30.877Z,66.70
2019-02-18T06:25:36.780Z,156.72
2019-02-18T06:26:42.207Z,96.53
2019-02-18T06:27:47.265Z,65.47
2019-02-18T06:28:52.214Z,94.92
2019-02-18T06:29:57.245Z,87.67
2019-02-18T06:31:02.378Z,86.63
2019-02-18T06:32:07.517Z,66.80
2019-02-18T06:33:12.469Z,74.10
2019-02-18T06:34:17.473Z,75.57
2019-02-18T06:35:22.464Z,123.02
2019-02-18T06:36:27.381Z,92.82
2019-02-18T06:37:32.344Z,112.60
2019-02-18T06:38:37.467Z,83.55
2019-02-18T06:39:42.325Z,82.78
2019-02-18T06:40:47.241Z,108.20
2019-02-18T06:41:52.283Z,64.22
2019-02-18T06:42:57.225Z,86.12
2019-02-18T06:44:02.126Z,98.00
2019-02-18T06:45:35.712Z,106.15
2019-02-18T06:46:52.152Z,64.77
2019-02-18T06:47:58.178Z,66.25
2019-02-18T06:49:21.965Z,106.25
2019-02-18T06:50:27.061Z,70.22
2019-02-18T06:51:32.171Z,87.75
2019-02-18T06:52:37.296Z,72.80
2019-02-18T06:53:42.185Z,113.20
2019-02-18T06:54:47.022Z,81.87
2019-02-18T06:55:51.789Z,73.00
2019-02-18T06:57:18.608Z,71.77
2019-02-18T06:58:40.194Z,70.92
2019-02-18T07:00:07.459Z,73.97
2019-02-18T07:01:21.993Z,65.10
2019-02-18T07:02:51.888Z,80.70
2019-02-18T07:04:21.903Z,71.77
2019-02-18T07:05:48.249Z,68.57
2019-02-18T07:07:17.670Z,82.95
2019-02-18T07:08:44.233Z,52.58
2019-02-18T07:10:07.958Z,64.72
2019-02-18T07:11:34.553Z,51.40
2019-02-18T07:12:43.404Z,54.90
2019-02-18T07:13:48.279Z,85.28
2019-02-18T07:14:53.161Z,65.67
2019-02-18T07:15:58.333Z,68.00
2019-02-18T07:17:03.504Z,93.03
2019-02-18T07:18:08.237Z,83.52
2019-02-18T07:19:13.149Z,70.00
2019-02-18T07:20:18.156Z,74.25
2019-02-18T07:21:22.948Z,81.45
2019-02-18T07:22:28.152Z,119.87
2019-02-18T07:23:33.053Z,79.35
2019-02-18T07:24:38.080Z,152.00
2019-02-18T07:25:43.196Z,84.07
2019-02-18T07:26:48.262Z,78.42
2019-02-18T07:27:53.332Z,89.52
2019-02-18T07:28:58.392Z,93.47
2019-02-18T07:30:03.191Z,66.47
2019-02-18T07:31:08.289Z,95.67
2019-02-18T07:32:13.319Z,98.90
2019-02-18T07:33:18.127Z,82.90
2019-02-18T07:34:23.184Z,120.02
2019-02-18T07:35:28.258Z,79.37
2019-02-18T07:36:34.999Z,87.12
2019-02-18T07:37:39.648Z,92.62
2019-02-18T07:38:44.596Z,71.90
2019-02-18T07:39:49.417Z,88.58
2019-02-18T07:40:54.417Z,105.90
2019-02-18T07:41:59.394Z,91.95
2019-02-18T07:43:04.244Z,87.57
2019-02-18T07:44:09.304Z,54.00
2019-02-18T07:45:14.315Z,81.12
2019-02-18T07:46:19.230Z,61.88
2019-02-18T07:47:24.073Z,62.13
2019-02-18T07:48:29.152Z,97.50
2019-02-18T07:49:33.984Z,101.62
2019-02-18T07:50:39.101Z,97.35
2019-02-18T07:51:44.280Z,112.22
2019-02-18T07:52:49.061Z,135.78
2019-02-18T07:53:54.063Z,82.57
2019-02-18T07:54:59.000Z,70.52
2019-02-18T07:56:03.952Z,50.12
2019-02-18T07:57:08.909Z,61.73
2019-02-18T07:58:13.826Z,54.58
2019-02-18T07:59:18.680Z,52.70
2019-02-18T08:00:23.620Z,39.80
2019-02-18T08:01:28.676Z,37.65
2019-02-18T08:02:33.413Z,36.20
2019-02-18T08:03:38.353Z,32.20
2019-02-18T08:04:43.409Z,32.65
2019-02-18T08:05:48.200Z,40.17
2019-02-18T08:06:53.336Z,35.60
2019-02-18T08:07:58.421Z,32.63
2019-02-18T08:09:04.897Z,37.75
2019-02-18T08:10:12.426Z,42.03
2019-02-18T08:11:17.255Z,50.28
2019-02-18T08:12:22.468Z,59.23
2019-02-18T08:13:27.463Z,35.63
2019-02-18T08:14:32.302Z,57.33
2019-02-18T08:15:37.345Z,57.75
2019-02-18T08:16:42.243Z,59.80
2019-02-18T08:17:47.177Z,44.25
2019-02-18T08:18:52.049Z,66.90
2019-02-18T08:19:57.114Z,66.00
2019-02-18T08:21:04.797Z,57.53
2019-02-18T08:22:10.244Z,68.67
2019-02-18T08:23:15.187Z,49.27
2019-02-18T08:24:20.205Z,59.00
2019-02-18T08:25:25.381Z,57.08
2019-02-18T08:26:30.173Z,52.58
2019-02-18T08:27:35.280Z,54.80
2019-02-18T08:28:40.437Z,60.95
2019-02-18T08:29:45.402Z,63.45
2019-02-18T08:30:50.332Z,61.65
2019-02-18T08:31:55.491Z,52.75
2019-02-18T08:33:00.524Z,53.35
2019-02-18T08:34:05.774Z,53.78
2019-02-18T08:35:10.577Z,59.00
2019-02-18T08:36:15.755Z,52.33
2019-02-18T08:37:20.751Z,62.67
2019-02-18T08:38:25.667Z,54.25
2019-02-18T08:39:30.541Z,44.60
2019-02-18T08:40:35.421Z,39.45
2019-02-18T08:41:40.313Z,47.30
2019-02-18T08:42:45.166Z,46.23
2019-02-18T08:43:49.985Z,41.00
2019-02-18T08:44:54.841Z,42.23
2019-02-18T08:45:59.789Z,37.80
2019-02-18T08:47:04.646Z,35.00
2019-02-18T08:48:09.484Z,34.43
2019-02-18T08:49:14.327Z,41.85
2019-02-18T08:50:19.285Z,31.48
2019-02-18T08:51:24.171Z,33.90
2019-02-18T08:52:28.965Z,40.03
2019-02-18T08:53:33.885Z,34.00
2019-02-18T08:54:38.896Z,31.97
2019-02-18T08:55:43.842Z,31.65
2019-02-18T08:56:48.763Z,30.35
2019-02-18T08:57:53.656Z,29.07
2019-02-18T08:58:58.717Z,29.23
2019-02-18T09:00:03.568Z,28.77
2019-02-18T09:01:08.476Z,27.02
2019-02-18T09:02:13.420Z,31.20
2019-02-18T09:03:18.494Z,30.30
2019-02-18T09:04:23.411Z,28.77
2019-02-18T09:05:28.144Z,25.30
2019-02-18T09:06:32.879Z,30.75
2019-02-18T09:07:37.636Z,29.37
2019-02-18T09:08:42.417Z,28.95
2019-02-18T09:09:48.079Z,29.18
2019-02-18T09:10:53.568Z,29.42
2019-02-18T09:11:59.039Z,32.48
2019-02-18T09:13:04.639Z,29.75
2019-02-18T09:14:10.081Z,27.87
2019-02-18T09:15:15.719Z,22.87
2019-02-18T09:16:21.279Z,24.72
2019-02-18T09:17:26.153Z,25.05
2019-02-18T09:18:31.098Z,25.62
2019-02-18T09:19:36.724Z,22.87
2019-02-18T09:20:42.582Z,30.85
2019-02-18T09:21:49.579Z,28.95
2019-02-18T09:23:11.293Z,25.08
2019-02-18T09:24:27.562Z,25.62
2019-02-18T09:25:37.379Z,26.00
2019-02-18T09:26:42.349Z,26.40
2019-02-18T09:27:47.073Z,26.48
2019-02-18T09:28:52.674Z,26.12
2019-02-18T09:29:58.275Z,30.55
2019-02-18T09:31:03.797Z,27.22
2019-02-18T09:32:08.893Z,24.05
2019-02-18T09:33:13.877Z,22.60
2019-02-18T09:34:18.938Z,23.60
2019-02-18T09:35:23.865Z,25.72
2019-02-18T09:36:28.788Z,29.70
2019-02-18T09:37:33.872Z,26.35
2019-02-18T09:38:38.847Z,25.27
2019-02-18T09:39:43.929Z,23.12
2019-02-18T09:41:55.560Z,20.17
2019-02-18T09:43:00.390Z,22.75
2019-02-18T09:44:05.271Z,24.95
2019-02-18T09:45:10.564Z,27.02
2019-02-18T09:46:15.468Z,26.43
2019-02-18T09:47:20.570Z,26.50
2019-02-18T09:48:25.649Z,26.70
2019-02-18T09:49:30.455Z,27.45
2019-02-18T09:50:35.368Z,25.40
2019-02-18T09:51:40.208Z,24.80
2019-02-18T09:52:44.989Z,26.55
2019-02-18T09:53:49.840Z,25.97
2019-02-18T09:54:54.830Z,26.25
2019-02-18T09:55:59.869Z,25.27
2019-02-18T09:57:04.920Z,27.58
2019-02-18T09:58:10.029Z,29.50
2019-02-18T09:59:15.107Z,31.17
2019-02-18T10:00:20.081Z,25.68
2019-02-18T10:01:25.002Z,28.90
2019-02-18T10:02:29.797Z,25.00
2019-02-18T10:03:34.750Z,24.87
2019-02-18T10:04:39.748Z,25.82
2019-02-18T10:05:44.639Z,25.55
2019-02-18T10:06:49.771Z,22.65
2019-02-18T10:07:54.621Z,24.63
2019-02-18T10:08:59.625Z,26.73
2019-02-18T10:10:04.931Z,23.52
2019-02-18T10:11:09.987Z,25.30
2019-02-18T10:12:18.288Z,22.85
2019-02-18T10:13:21.802Z,24.32
2019-02-18T10:14:27.039Z,23.85
2019-02-18T10:15:31.947Z,23.38
2019-02-18T10:16:37.126Z,24.98
2019-02-18T10:17:42.873Z,34.03
2019-02-18T10:18:48.078Z,22.05
2019-02-18T10:19:53.048Z,23.00
2019-02-18T10:20:58.015Z,19.55
2019-02-18T10:22:03.094Z,22.48
2019-02-18T10:23:08.125Z,19.35
2019-02-18T10:24:13.137Z,20.35
2019-02-18T10:25:18.265Z,20.72
2019-02-18T10:26:23.126Z,30.85
2019-02-18T10:27:28.156Z,21.15
2019-02-18T10:28:33.238Z,19.32
2019-02-18T10:29:38.255Z,19.27
2019-02-18T10:30:43.249Z,19.52
2019-02-18T10:31:48.028Z,21.55
2019-02-18T10:32:52.858Z,23.12
2019-02-18T10:33:57.754Z,24.05
2019-02-18T10:35:02.596Z,21.70
2019-02-18T10:36:07.312Z,25.02
2019-02-18T10:37:12.089Z,23.50
2019-02-18T10:38:16.853Z,23.73
2019-02-18T10:39:21.582Z,22.32
2019-02-18T10:40:26.310Z,24.65
2019-02-18T10:41:31.139Z,23.70
2019-02-18T10:42:35.908Z,22.90
2019-02-18T10:43:40.665Z,24.18
2019-02-18T10:44:45.407Z,24.35
2019-02-18T10:45:50.630Z,25.68
2019-02-18T10:46:55.389Z,26.85
2019-02-18T10:48:00.127Z,23.15
2019-02-18T10:49:04.963Z,24.10
2019-02-18T10:50:10.561Z,27.07
2019-02-18T10:51:15.306Z,27.93
2019-02-18T10:52:22.493Z,23.95
2019-02-18T10:53:26.593Z,25.82
2019-02-18T10:54:31.346Z,27.35
2019-02-18T10:55:36.116Z,27.20
2019-02-18T10:56:40.915Z,26.45
2019-02-18T10:57:45.691Z,25.77
2019-02-18T10:58:50.449Z,30.37
2019-02-18T10:59:55.172Z,24.52
2019-02-18T11:00:59.910Z,25.70
2019-02-18T11:02:05.023Z,26.65
2019-02-18T11:03:09.869Z,27.40
2019-02-18T11:04:15.029Z,26.33
2019-02-18T11:05:19.962Z,25.40
2019-02-18T11:06:24.718Z,27.98
2019-02-18T11:07:29.735Z,26.57
2019-02-18T11:08:34.646Z,29.63
2019-02-18T11:09:39.589Z,27.35
2019-02-18T11:10:44.663Z,28.85
2019-02-18T11:11:49.584Z,27.05
2019-02-18T11:12:54.611Z,26.68
2019-02-18T11:13:59.565Z,21.05
2019-02-18T11:15:05.003Z,28.38
2019-02-18T11:16:10.049Z,30.85
2019-02-18T11:17:15.273Z,29.27
2019-02-18T11:18:20.221Z,29.02
2019-02-18T11:19:25.316Z,32.17
2019-02-18T11:20:30.256Z,26.02
2019-02-18T11:21:35.241Z,28.80
2019-02-18T11:22:40.484Z,25.57
2019-02-18T11:23:45.530Z,27.82
2019-02-18T11:24:50.600Z,27.35
2019-02-18T11:25:55.704Z,27.73
2019-02-18T11:27:00.576Z,26.02
2019-02-18T11:28:05.668Z,25.97
2019-02-18T11:29:10.647Z,25.75
2019-02-18T11:30:15.829Z,26.15
2019-02-18T11:31:20.609Z,27.95
2019-02-18T11:32:25.756Z,26.30
2019-02-18T11:33:31.030Z,28.92
2019-02-18T11:34:39.149Z,23.65
2019-02-18T11:35:44.574Z,28.12
2019-02-18T11:36:49.587Z,26.77
2019-02-18T11:37:55.830Z,26.33
2019-02-18T11:39:00.911Z,25.02
2019-02-18T11:40:06.189Z,27.87
2019-02-18T11:41:11.146Z,27.35
2019-02-18T11:42:16.124Z,29.65
2019-02-18T11:43:21.334Z,28.55
2019-02-18T11:44:26.259Z,25.72
2019-02-18T11:45:31.189Z,26.80
2019-02-18T11:46:36.317Z,27.65
2019-02-18T11:47:41.428Z,25.97
2019-02-18T11:48:46.413Z,25.97
2019-02-18T11:49:51.586Z,23.95
2019-02-18T11:50:56.781Z,22.27
2019-02-18T11:52:02.085Z,23.53
2019-02-18T11:53:07.052Z,22.47
2019-02-18T11:54:12.234Z,25.00
2019-02-18T11:55:17.388Z,25.40
2019-02-18T11:56:22.753Z,25.57
2019-02-18T11:57:28.021Z,26.00
2019-02-18T11:58:32.887Z,22.80
2019-02-18T11:59:37.737Z,27.47
2019-02-18T12:00:42.630Z,24.67
2019-02-18T12:01:47.517Z,23.40
2019-02-18T12:03:02.493Z,23.27
2019-02-18T12:04:00.085Z,24.23
2019-02-18T12:05:05.461Z,25.80
2019-02-18T12:06:10.569Z,20.40
2019-02-18T12:07:15.592Z,23.63
2019-02-18T12:08:20.768Z,20.97
2019-02-18T12:09:25.924Z,19.80
2019-02-18T12:10:30.882Z,20.40
2019-02-18T12:11:38.401Z,23.27
2019-02-18T12:12:42.260Z,17.70
2019-02-18T12:13:47.171Z,23.10
2019-02-18T12:14:52.295Z,18.47
2019-02-18T12:15:57.484Z,21.73
2019-02-18T12:17:02.693Z,19.33
2019-02-18T12:18:07.878Z,20.00
2019-02-18T12:19:12.807Z,20.23
2019-02-18T12:20:17.811Z,19.50
2019-02-18T12:21:22.648Z,18.87
2019-02-18T12:22:27.507Z,20.30
2019-02-18T12:23:33.721Z,22.70
2019-02-18T12:24:39.264Z,21.77
2019-02-18T12:25:44.468Z,19.50
2019-02-18T12:26:51.827Z,18.13
2019-02-18T12:27:56.885Z,21.53
2019-02-18T12:29:02.285Z,21.53
2019-02-18T12:30:09.030Z,21.87
2019-02-18T12:31:14.135Z,19.93
2019-02-18T12:32:19.181Z,21.43
2019-02-18T12:33:24.180Z,22.33
2019-02-18T12:34:29.052Z,23.87
2019-02-18T12:35:34.242Z,21.80
2019-02-18T12:36:40.186Z,20.37
2019-02-18T12:37:55.020Z,22.03
2019-02-18T12:38:52.496Z,23.22
2019-02-18T12:39:57.573Z,23.87
2019-02-18T12:41:02.595Z,24.72
2019-02-18T12:42:07.652Z,25.70
2019-02-18T12:43:12.801Z,22.67
2019-02-18T12:44:17.805Z,24.40
2019-02-18T12:45:22.996Z,21.73
2019-02-18T12:46:28.060Z,24.37
2019-02-18T12:47:33.117Z,20.90
2019-02-18T12:48:38.402Z,22.75
2019-02-18T12:49:43.338Z,24.18
2019-02-18T12:50:48.189Z,23.32
2019-02-18T12:51:53.068Z,25.08
2019-02-18T12:52:57.925Z,24.57
2019-02-18T12:54:05.285Z,22.77
2019-02-18T12:55:09.837Z,24.87
2019-02-18T12:56:15.132Z,23.35
2019-02-18T12:57:20.563Z,20.62
2019-02-18T12:58:25.717Z,24.18
2019-02-18T12:59:31.639Z,22.55
2019-02-18T13:00:38.184Z,21.10
2019-02-18T13:01:43.257Z,26.07
2019-02-18T13:02:48.203Z,25.50
2019-02-18T13:03:53.217Z,25.70
2019-02-18T13:04:58.187Z,23.50
2019-02-18T13:06:03.269Z,25.62
2019-02-18T13:07:08.477Z,23.38
2019-02-18T13:08:13.893Z,24.02
2019-02-18T13:09:18.825Z,23.10
2019-02-18T13:10:34.457Z,25.00
2019-02-18T13:11:30.750Z,26.68
2019-02-18T13:12:35.928Z,28.52
2019-02-18T13:13:41.679Z,28.65
2019-02-18T13:14:47.207Z,27.90
2019-02-18T13:15:52.407Z,28.50
2019-02-18T13:16:57.786Z,30.37
2019-02-18T13:19:08.098Z,26.50
2019-02-18T13:20:13.072Z,27.40
2019-02-18T13:21:18.168Z,29.55
2019-02-18T13:22:23.272Z,26.97
2019-02-18T13:23:28.162Z,29.05
2019-02-18T13:24:33.155Z,30.08
2019-02-18T13:25:38.036Z,32.63
2019-02-18T13:26:42.928Z,27.93
2019-02-18T13:27:47.757Z,26.82
2019-02-18T13:28:52.736Z,26.70
2019-02-18T13:29:57.926Z,28.87
2019-02-18T13:31:03.365Z,30.55
2019-02-18T13:32:08.594Z,32.05
2019-02-18T13:33:13.932Z,28.80
2019-02-18T13:34:18.901Z,31.17
2019-02-18T13:35:24.191Z,32.33
2019-02-18T13:36:29.295Z,28.67
2019-02-18T13:37:34.412Z,29.15
2019-02-18T13:38:39.539Z,28.00
2019-02-18T13:39:45.256Z,28.75
2019-02-18T13:40:50.381Z,27.60
2019-02-18T13:41:55.338Z,26.85
2019-02-18T13:43:00.325Z,26.95
2019-02-18T13:44:05.385Z,31.52
2019-02-18T13:45:10.347Z,30.12
2019-02-18T13:46:15.245Z,29.18
2019-02-18T13:47:20.102Z,29.50
2019-02-18T13:48:24.866Z,30.17
2019-02-18T13:49:29.957Z,30.08
2019-02-18T13:50:35.179Z,30.65
2019-02-18T13:51:40.227Z,32.63
2019-02-18T13:52:45.060Z,31.20
2019-02-18T13:53:49.787Z,34.10
2019-02-18T13:54:54.581Z,34.25
2019-02-18T13:55:59.490Z,32.15
2019-02-18T13:57:09.811Z,32.20
2019-02-18T13:58:10.809Z,34.53
2019-02-18T13:59:15.800Z,34.10
2019-02-18T14:00:21.621Z,30.82
2019-02-18T14:01:26.435Z,29.12